createdAt,value
2022-10-17T00:00:02.241Z,76
2022-10-17T00:20:02.863Z,77
2022-10-17T00:40:03.079Z,77
2022-10-17T01:00:02.410Z,78
2022-10-17T01:20:03.010Z,78
2022-10-17T01:40:02.439Z,78
2022-10-17T02:00:02.688Z,78
2022-10-17T02:20:02.488Z,78
2022-10-17T02:40:02.775Z,78
2022-10-17T03:00:02.992Z,78
2022-10-17T03:20:02.463Z,78
2022-10-17T03:40:02.905Z,80
2022-10-17T04:00:02.297Z,80
2022-10-17T04:20:02.718Z,80
2022-10-17T04:40:02.982Z,82
2022-10-17T05:00:02.590Z,82
2022-10-17T05:20:02.773Z,83
2022-10-17T05:40:03.418Z,83
2022-10-17T06:00:02.749Z,83
2022-10-17T06:20:02.268Z,84
2022-10-17T06:40:02.687Z,84
2022-10-17T07:00:03.052Z,84
2022-10-17T07:20:02.569Z,85
2022-10-17T07:40:02.830Z,84
2022-10-17T08:00:03.183Z,83
2022-10-17T08:20:02.469Z,81
2022-10-17T08:40:02.849Z,77
2022-10-17T09:00:03.392Z,72
2022-10-17T09:20:03.008Z,68
2022-10-17T09:40:02.435Z,64
2022-10-17T10:00:03.276Z,61
2022-10-17T10:20:02.990Z,59
2022-10-17T10:40:02.499Z,57
2022-10-17T11:00:02.880Z,57
2022-10-17T11:20:02.328Z,56
2022-10-17T11:40:02.915Z,54
2022-10-17T12:00:02.206Z,53
2022-10-17T12:20:03.116Z,53
2022-10-17T12:40:02.373Z,54
2022-10-17T13:00:02.731Z,53
2022-10-17T13:20:02.446Z,54
2022-10-17T13:40:40.644Z,54
2022-10-17T14:00:02.946Z,55
2022-10-17T14:21:08.013Z,56
2022-10-17T14:40:02.788Z,56
2022-10-17T15:00:03.763Z,56
2022-10-17T15:20:02.426Z,57
2022-10-17T15:40:02.742Z,58
2022-10-17T16:00:03.147Z,59
2022-10-17T16:20:02.742Z,60
2022-10-17T16:40:03.243Z,62
2022-10-17T17:00:02.593Z,63
2022-10-17T17:20:03.109Z,64
2022-10-17T17:40:02.367Z,65
2022-10-17T18:00:02.823Z,67
2022-10-17T18:20:02.601Z,68
2022-10-17T18:40:03.175Z,69
2022-10-17T19:00:02.952Z,70
2022-10-17T19:20:02.636Z,71
2022-10-17T19:40:03.440Z,72
2022-10-17T20:00:02.960Z,72
2022-10-17T20:20:07.879Z,72
2022-10-17T20:40:34.916Z,72
2022-10-17T21:00:02.931Z,73
2022-10-17T21:20:02.743Z,73
2022-10-17T21:40:03.276Z,73
2022-10-17T22:00:02.650Z,74
2022-10-17T22:20:02.982Z,74
2022-10-17T22:40:02.299Z,74
2022-10-17T23:00:02.738Z,75
2022-10-17T23:20:02.149Z,76
2022-10-17T23:40:02.495Z,76
